createdAt,value
2019-02-16T00:00:58.752Z,10.43
2019-02-16T00:03:33.911Z,11.43
2019-02-16T00:06:07.610Z,10.50
2019-02-16T00:08:40.333Z,10.83
2019-02-16T00:11:14.196Z,9.90
2019-02-16T00:13:48.637Z,10.63
2019-02-16T00:16:22.277Z,10.63
2019-02-16T00:18:56.481Z,10.83
2019-02-16T00:21:30.759Z,9.47
2019-02-16T00:24:05.482Z,7.17
2019-02-16T00:26:39.205Z,11.03
2019-02-16T00:29:13.261Z,8.70
2019-02-16T00:31:45.794Z,9.70
2019-02-16T00:34:19.445Z,6.20
2019-02-16T00:36:53.133Z,7.17
2019-02-16T00:39:26.875Z,9.27
2019-02-16T00:42:00.376Z,7.03
2019-02-16T00:44:34.409Z,11.03
2019-02-16T00:47:08.117Z,10.27
2019-02-16T00:49:42.358Z,9.40
2019-02-16T00:52:16.289Z,8.83
2019-02-16T00:54:50.479Z,7.60
2019-02-16T00:57:24.539Z,8.03
2019-02-16T00:59:59.553Z,6.57
2019-02-16T01:02:36.558Z,6.70
2019-02-16T01:05:13.151Z,5.60
2019-02-16T01:07:47.613Z,6.17
2019-02-16T01:10:21.577Z,6.30
2019-02-16T01:12:55.561Z,5.57
2019-02-16T01:15:30.356Z,5.40
2019-02-16T01:18:04.191Z,5.23
2019-02-16T01:20:37.795Z,4.97
2019-02-16T01:23:12.055Z,6.73
2019-02-16T01:25:46.123Z,5.77
2019-02-16T01:28:20.073Z,5.90
2019-02-16T01:30:53.981Z,5.47
2019-02-16T01:33:30.952Z,6.20
2019-02-16T01:36:04.828Z,5.17
2019-02-16T01:38:38.615Z,4.90
2019-02-16T01:41:13.113Z,5.10
2019-02-16T01:43:46.727Z,4.40
2019-02-16T01:46:20.269Z,5.73
2019-02-16T01:48:56.251Z,5.87
2019-02-16T01:51:32.210Z,5.63
2019-02-16T01:54:06.999Z,4.67
2019-02-16T01:56:40.934Z,5.70
2019-02-16T01:59:15.069Z,4.60
2019-02-16T02:01:49.127Z,4.33
2019-02-16T02:04:26.232Z,4.43
2019-02-16T02:07:00.873Z,4.47
2019-02-16T02:09:36.981Z,4.50
2019-02-16T02:12:10.978Z,5.23
2019-02-16T02:14:45.125Z,4.70
2019-02-16T02:17:19.047Z,4.40
2019-02-16T02:19:52.782Z,3.73
2019-02-16T02:22:26.867Z,4.23
2019-02-16T02:25:00.772Z,5.43
2019-02-16T02:27:34.607Z,5.40
2019-02-16T02:30:09.557Z,5.00
2019-02-16T02:32:43.623Z,5.37
2019-02-16T02:35:17.458Z,6.57
2019-02-16T02:37:51.522Z,5.83
2019-02-16T02:40:27.127Z,6.13
2019-02-16T02:43:01.594Z,6.50
2019-02-16T02:45:36.346Z,6.20
2019-02-16T02:48:10.597Z,6.20
2019-02-16T02:50:44.115Z,4.77
2019-02-16T02:53:18.668Z,5.67
2019-02-16T02:55:52.295Z,5.57
2019-02-16T02:58:26.305Z,5.17
2019-02-16T03:00:59.999Z,5.57
2019-02-16T03:03:34.761Z,5.20
2019-02-16T03:06:09.301Z,5.97
2019-02-16T03:08:42.896Z,5.43
2019-02-16T03:11:16.382Z,4.93
2019-02-16T03:13:50.273Z,5.97
2019-02-16T03:16:23.799Z,6.13
2019-02-16T03:18:58.339Z,4.70
2019-02-16T03:21:34.582Z,5.10
2019-02-16T03:24:09.158Z,4.93
2019-02-16T03:27:21.081Z,5.47
2019-02-16T03:30:30.392Z,4.97
2019-02-16T03:33:32.160Z,5.40
2019-02-16T03:36:31.300Z,4.60
2019-02-16T03:39:17.302Z,4.40
2019-02-16T03:41:52.138Z,3.83
2019-02-16T03:44:25.718Z,3.93
2019-02-16T03:46:59.339Z,3.07
2019-02-16T03:49:32.763Z,3.30
2019-02-16T03:52:13.838Z,5.13
2019-02-16T03:54:42.134Z,4.87
2019-02-16T03:57:16.113Z,4.40
2019-02-16T03:59:51.846Z,5.37
2019-02-16T04:02:26.151Z,6.43
2019-02-16T04:05:00.001Z,4.13
2019-02-16T04:07:34.608Z,9.90
2019-02-16T04:10:08.807Z,6.67
2019-02-16T04:12:46.245Z,6.30
2019-02-16T04:15:20.026Z,8.97
2019-02-16T04:17:54.033Z,4.80
2019-02-16T04:20:27.488Z,5.20
2019-02-16T04:23:01.555Z,5.63
2019-02-16T04:25:34.987Z,5.70
2019-02-16T04:28:09.004Z,6.10
2019-02-16T04:30:42.486Z,6.97
2019-02-16T04:33:17.019Z,5.33
2019-02-16T04:35:51.307Z,5.27
2019-02-16T04:38:25.938Z,8.07
2019-02-16T04:40:59.560Z,8.80
2019-02-16T04:43:33.477Z,8.97
2019-02-16T04:46:06.961Z,7.63
2019-02-16T04:48:41.389Z,6.93
2019-02-16T04:51:16.324Z,6.13
2019-02-16T04:53:50.068Z,6.57
2019-02-16T04:56:23.637Z,8.27
2019-02-16T04:58:57.651Z,6.53
2019-02-16T05:01:32.729Z,6.73
2019-02-16T05:04:06.930Z,4.53
2019-02-16T05:06:41.148Z,4.10
2019-02-16T05:09:15.564Z,6.13
2019-02-16T05:11:49.155Z,3.87
2019-02-16T05:14:24.102Z,3.70
2019-02-16T05:16:57.375Z,5.23
2019-02-16T05:19:32.292Z,5.87
2019-02-16T05:22:06.488Z,4.70
2019-02-16T05:24:40.517Z,5.40
2019-02-16T05:27:15.182Z,6.13
2019-02-16T05:29:49.255Z,4.60
2019-02-16T05:32:23.273Z,4.23
2019-02-16T05:34:57.332Z,6.40
2019-02-16T05:37:31.337Z,5.40
2019-02-16T05:40:05.133Z,6.13
2019-02-16T05:42:38.745Z,6.60
2019-02-16T05:45:12.929Z,5.03
2019-02-16T05:47:46.563Z,6.63
2019-02-16T05:50:20.885Z,4.83
2019-02-16T05:52:55.664Z,4.93
2019-02-16T05:55:30.133Z,6.30
2019-02-16T05:58:03.559Z,8.93
2019-02-16T06:00:38.215Z,7.57
2019-02-16T06:03:13.880Z,7.97
2019-02-16T06:05:47.707Z,7.20
2019-02-16T06:08:21.336Z,8.63
2019-02-16T06:10:55.929Z,8.23
2019-02-16T06:13:29.925Z,9.17
2019-02-16T06:16:04.227Z,6.40
2019-02-16T06:18:40.935Z,7.77
2019-02-16T06:21:15.055Z,7.43
2019-02-16T06:23:48.593Z,11.13
2019-02-16T06:26:22.691Z,8.67
2019-02-16T06:28:57.576Z,12.00
2019-02-16T06:31:31.671Z,9.77
2019-02-16T06:34:05.257Z,11.33
2019-02-16T06:36:41.375Z,8.70
2019-02-16T06:39:17.449Z,7.43
2019-02-16T06:41:51.873Z,8.20
2019-02-16T06:44:26.181Z,13.23
2019-02-16T06:47:00.221Z,13.23
2019-02-16T06:49:33.860Z,14.73
2019-02-16T06:52:08.169Z,8.93
2019-02-16T06:54:41.861Z,9.63
2019-02-16T06:57:26.855Z,9.67
2019-02-16T07:00:00.737Z,9.57
2019-02-16T07:02:34.545Z,7.97
2019-02-16T07:05:08.282Z,14.77
2019-02-16T07:07:43.778Z,10.70
2019-02-16T07:10:17.681Z,8.93
2019-02-16T07:12:53.244Z,7.60
2019-02-16T07:15:28.536Z,7.63
2019-02-16T07:18:12.882Z,9.93
2019-02-16T07:20:46.548Z,9.80
2019-02-16T07:23:22.793Z,9.87
2019-02-16T07:25:56.101Z,13.23
2019-02-16T07:28:30.178Z,9.60
2019-02-16T07:31:03.748Z,9.03
2019-02-16T07:33:38.068Z,8.93
2019-02-16T07:36:14.397Z,8.27
2019-02-16T07:38:48.467Z,6.77
2019-02-16T07:41:22.418Z,10.00
2019-02-16T07:44:31.832Z,9.57
2019-02-16T07:47:36.586Z,9.40
2019-02-16T07:50:26.719Z,9.13
2019-02-16T07:53:18.305Z,7.57
2019-02-16T07:56:10.670Z,4.97
2019-02-16T07:58:54.359Z,7.97
2019-02-16T08:01:47.419Z,6.77
2019-02-16T08:04:58.216Z,3.97
2019-02-16T08:07:46.119Z,6.20
2019-02-16T08:10:42.868Z,5.47
2019-02-16T08:13:28.446Z,5.47
2019-02-16T08:16:15.880Z,6.10
2019-02-16T08:19:35.008Z,6.53
2019-02-16T08:22:40.794Z,6.77
2019-02-16T08:25:38.405Z,5.10
2019-02-16T08:28:20.641Z,6.77
2019-02-16T08:31:09.204Z,4.07
2019-02-16T08:34:09.586Z,5.73
2019-02-16T08:37:05.235Z,3.63
2019-02-16T08:40:07.040Z,3.53
2019-02-16T08:43:11.305Z,6.10
2019-02-16T08:46:03.883Z,6.00
2019-02-16T08:48:58.720Z,3.67
2019-02-16T08:51:49.977Z,3.60
2019-02-16T08:55:00.394Z,6.30
2019-02-16T08:57:49.757Z,4.17
2019-02-16T09:00:45.215Z,2.70
2019-02-16T09:03:35.976Z,3.87
2019-02-16T09:06:35.727Z,3.20
2019-02-16T09:09:30.759Z,4.00
2019-02-16T09:12:12.219Z,4.33
2019-02-16T09:15:14.949Z,3.47
2019-02-16T09:18:03.759Z,4.37
2019-02-16T09:21:00.105Z,6.50
2019-02-16T09:23:59.171Z,6.40
2019-02-16T09:26:51.332Z,6.93
2019-02-16T09:29:54.439Z,6.23
2019-02-16T09:33:03.920Z,3.07
2019-02-16T09:35:54.818Z,3.50
2019-02-16T09:38:39.471Z,4.77
2019-02-16T09:41:31.225Z,4.83
2019-02-16T09:44:19.778Z,4.10
2019-02-16T09:47:03.799Z,7.57
2019-02-16T09:49:51.353Z,4.80
2019-02-16T09:52:46.408Z,3.60
2019-02-16T09:55:54.841Z,3.23
2019-02-16T09:58:38.995Z,2.83
2019-02-16T10:01:28.157Z,2.23
2019-02-16T10:04:26.218Z,2.40
2019-02-16T10:07:30.445Z,2.30
2019-02-16T10:10:16.379Z,3.20
2019-02-16T10:13:15.905Z,4.20
2019-02-16T10:16:17.525Z,4.63
2019-02-16T10:19:15.789Z,3.87
2019-02-16T10:22:14.768Z,6.37
2019-02-16T10:25:14.182Z,5.30
2019-02-16T10:28:03.277Z,3.90
2019-02-16T10:31:20.810Z,2.43
2019-02-16T10:34:18.068Z,3.70
2019-02-16T10:37:13.760Z,9.33
2019-02-16T10:40:09.533Z,4.93
2019-02-16T10:43:08.421Z,3.57
2019-02-16T10:46:22.852Z,4.53
2019-02-16T10:49:22.439Z,3.57
2019-02-16T10:52:24.348Z,3.13
2019-02-16T10:55:23.916Z,2.73
2019-02-16T10:58:33.545Z,2.73
2019-02-16T11:01:34.227Z,6.63
2019-02-16T11:04:22.633Z,8.40
2019-02-16T11:07:09.697Z,4.70
2019-02-16T11:10:00.300Z,2.90
2019-02-16T11:13:03.445Z,4.23
2019-02-16T11:16:13.109Z,3.03
2019-02-16T11:19:05.934Z,3.80
2019-02-16T11:22:04.418Z,3.30
2019-02-16T11:25:10.795Z,3.20
2019-02-16T11:28:03.801Z,3.43
2019-02-16T11:30:57.929Z,3.77
2019-02-16T11:33:52.452Z,3.20
2019-02-16T11:36:42.433Z,3.83
2019-02-16T11:39:35.120Z,4.07
2019-02-16T11:42:24.265Z,4.23
2019-02-16T11:45:37.388Z,5.57
2019-02-16T11:48:38.158Z,3.93
2019-02-16T11:51:20.777Z,4.00
2019-02-16T11:54:11.363Z,4.50
2019-02-16T11:56:57.177Z,4.53
2019-02-16T11:59:49.973Z,6.57
2019-02-16T12:02:41.521Z,3.40
2019-02-16T12:05:40.940Z,4.97
2019-02-16T12:08:51.411Z,4.93
2019-02-16T12:11:49.311Z,5.00
2019-02-16T12:14:45.139Z,4.37
2019-02-16T12:17:40.120Z,4.07
2019-02-16T12:20:48.216Z,4.23
2019-02-16T12:23:42.096Z,7.67
2019-02-16T12:26:32.265Z,4.87
2019-02-16T12:29:21.858Z,7.00
2019-02-16T12:32:11.881Z,7.07
2019-02-16T12:35:24.431Z,8.60
2019-02-16T12:38:09.761Z,8.00
2019-02-16T12:41:02.179Z,6.60
2019-02-16T12:43:45.760Z,7.03
2019-02-16T12:46:36.505Z,7.27
2019-02-16T12:49:30.054Z,7.40
2019-02-16T12:52:33.502Z,7.27
2019-02-16T12:55:24.673Z,7.90
2019-02-16T12:58:09.229Z,7.27
2019-02-16T13:00:59.433Z,6.70
2019-02-16T13:04:29.444Z,7.77
2019-02-16T13:07:13.438Z,7.33
2019-02-16T13:10:05.894Z,7.90
2019-02-16T13:13:04.626Z,8.90
2019-02-16T13:15:51.644Z,7.80
2019-02-16T13:18:35.711Z,6.30
2019-02-16T13:21:20.585Z,8.67
2019-02-16T13:24:09.714Z,10.13
2019-02-16T13:27:04.701Z,8.83
2019-02-16T13:30:13.622Z,9.00
2019-02-16T13:33:23.521Z,8.10
2019-02-16T13:36:12.023Z,8.90
2019-02-16T13:39:10.971Z,8.80
2019-02-16T13:41:57.970Z,8.33
2019-02-16T13:44:41.707Z,8.40
2019-02-16T13:47:30.979Z,8.20
2019-02-16T13:50:14.059Z,7.93
2019-02-16T13:53:10.498Z,7.97
2019-02-16T13:56:18.319Z,10.80
2019-02-16T13:59:03.683Z,9.30
2019-02-16T14:01:58.601Z,8.50
2019-02-16T14:04:47.570Z,8.73
2019-02-16T14:07:52.420Z,7.27
2019-02-16T14:10:39.555Z,7.97
2019-02-16T14:13:33.404Z,7.30
2019-02-16T14:16:25.912Z,6.97
2019-02-16T14:19:00.933Z,7.90
2019-02-16T14:21:35.913Z,6.07
2019-02-16T14:24:13.197Z,6.97
2019-02-16T14:26:47.216Z,7.13
2019-02-16T14:29:21.747Z,6.70
2019-02-16T14:31:56.130Z,7.00
2019-02-16T14:34:30.673Z,8.40
2019-02-16T14:37:07.925Z,7.43
2019-02-16T14:39:46.353Z,5.77
2019-02-16T14:42:20.841Z,5.87
2019-02-16T14:44:57.507Z,7.50
2019-02-16T14:47:32.784Z,6.80
2019-02-16T14:50:06.414Z,6.03
2019-02-16T14:52:43.024Z,7.00
2019-02-16T14:55:22.755Z,5.63
2019-02-16T14:57:59.268Z,5.30
2019-02-16T15:00:34.954Z,5.87
2019-02-16T15:03:12.963Z,5.93
2019-02-16T15:05:47.088Z,9.13
2019-02-16T15:08:21.590Z,6.47
2019-02-16T15:10:57.054Z,5.60
2019-02-16T15:13:31.306Z,5.50
2019-02-16T15:16:07.044Z,5.80
2019-02-16T15:18:42.169Z,5.87
2019-02-16T15:21:25.041Z,6.43
2019-02-16T15:24:00.098Z,6.60
2019-02-16T15:26:38.249Z,7.53
2019-02-16T15:29:13.023Z,7.37
2019-02-16T15:31:53.061Z,8.00
2019-02-16T15:34:33.993Z,8.80
2019-02-16T15:37:09.076Z,8.53
2019-02-16T15:39:51.537Z,9.20
2019-02-16T15:42:28.393Z,10.73
2019-02-16T15:45:03.278Z,8.17
2019-02-16T15:47:38.663Z,8.30
2019-02-16T15:50:14.363Z,8.63
2019-02-16T15:52:48.183Z,7.60
2019-02-16T15:55:23.319Z,7.80
2019-02-16T15:58:00.419Z,8.20
2019-02-16T16:00:35.275Z,8.40
2019-02-16T16:03:09.885Z,9.43
2019-02-16T16:05:45.128Z,9.20
2019-02-16T16:08:45.565Z,10.17
2019-02-16T16:11:44.421Z,10.23
2019-02-16T16:14:30.505Z,11.57
2019-02-16T16:17:24.044Z,11.57
2019-02-16T16:20:27.385Z,11.97
2019-02-16T16:23:28.060Z,11.03
2019-02-16T16:26:30.031Z,11.40
2019-02-16T16:29:30.022Z,12.73
2019-02-16T16:32:35.256Z,14.50
2019-02-16T16:35:31.630Z,18.90
2019-02-16T16:38:14.237Z,16.33
2019-02-16T16:41:00.819Z,15.57
2019-02-16T16:44:01.880Z,13.47
2019-02-16T16:47:00.858Z,16.77
2019-02-16T16:50:18.773Z,13.57
2019-02-16T16:53:24.093Z,14.70
2019-02-16T16:56:07.271Z,14.83
2019-02-16T16:59:09.749Z,13.70
2019-02-16T17:02:14.493Z,14.00
2019-02-16T17:05:12.385Z,14.80
2019-02-16T17:07:57.488Z,15.90
2019-02-16T17:11:08.775Z,13.70
2019-02-16T17:13:58.208Z,13.40
2019-02-16T17:16:54.462Z,14.97
2019-02-16T17:20:00.351Z,14.23
2019-02-16T17:22:58.200Z,13.63
2019-02-16T17:25:46.778Z,14.80
2019-02-16T17:28:44.607Z,17.10
2019-02-16T17:31:52.355Z,15.50
2019-02-16T17:35:01.922Z,17.23
2019-02-16T17:38:00.393Z,17.40
2019-02-16T17:40:55.005Z,17.57
2019-02-16T17:43:54.032Z,17.80
2019-02-16T17:46:58.967Z,16.80
2019-02-16T17:49:54.574Z,15.83
2019-02-16T17:53:12.139Z,19.83
2019-02-16T17:56:02.487Z,18.70
2019-02-16T17:58:50.641Z,16.10
2019-02-16T18:01:44.899Z,15.93
2019-02-16T18:05:04.257Z,15.87
2019-02-16T18:08:05.798Z,16.07
2019-02-16T18:14:24.022Z,21.90
2019-02-16T18:17:46.953Z,16.60
2019-02-16T18:20:48.132Z,15.07
2019-02-16T18:23:57.098Z,14.17
2019-02-16T18:27:03.516Z,15.13
2019-02-16T18:30:09.739Z,13.07
2019-02-16T18:32:57.844Z,14.60
2019-02-16T18:35:51.727Z,16.27
2019-02-16T18:38:56.443Z,18.73
2019-02-16T18:41:50.875Z,25.77
2019-02-16T18:44:59.116Z,33.30
2019-02-16T18:48:11.443Z,43.37
2019-02-16T18:51:13.960Z,49.70
2019-02-16T18:54:35.240Z,50.83
2019-02-16T18:57:48.659Z,52.00
2019-02-16T19:00:43.103Z,47.77
2019-02-16T19:03:50.191Z,50.07
2019-02-16T19:06:48.837Z,51.27
2019-02-16T19:09:45.228Z,51.03
2019-02-16T19:12:37.711Z,46.97
2019-02-16T19:15:31.748Z,47.87
2019-02-16T19:18:30.132Z,47.80
2019-02-16T19:21:37.050Z,43.27
2019-02-16T19:24:28.458Z,45.13
2019-02-16T19:27:16.778Z,39.27
2019-02-16T19:30:03.901Z,36.13
2019-02-16T19:32:50.435Z,36.73
2019-02-16T19:35:34.087Z,35.63
2019-02-16T19:38:39.849Z,32.30
2019-02-16T19:41:47.262Z,34.03
2019-02-16T19:44:54.634Z,32.73
2019-02-16T19:47:48.529Z,36.00
2019-02-16T19:50:55.888Z,33.27
2019-02-16T19:53:50.219Z,34.03
2019-02-16T19:56:35.528Z,32.43
2019-02-16T19:59:24.336Z,31.57
2019-02-16T20:02:19.486Z,31.37
2019-02-16T20:05:21.673Z,29.17
2019-02-16T20:08:17.423Z,32.13
2019-02-16T20:11:17.922Z,26.57
2019-02-16T20:14:29.748Z,25.97
2019-02-16T20:17:26.996Z,29.33
2019-02-16T20:20:39.657Z,32.90
2019-02-16T20:23:31.019Z,29.07
2019-02-16T20:26:32.522Z,29.23
2019-02-16T20:29:34.975Z,28.87
2019-02-16T20:32:36.760Z,27.10
2019-02-16T20:35:43.863Z,32.53
2019-02-16T20:38:37.697Z,31.73
2019-02-16T20:41:38.492Z,25.63
2019-02-16T20:44:24.859Z,25.43
2019-02-16T20:47:28.663Z,26.00
2019-02-16T20:50:41.826Z,23.80
2019-02-16T20:53:38.635Z,23.07
2019-02-16T20:56:19.397Z,25.50
2019-02-16T20:59:11.909Z,28.00
2019-02-16T21:01:59.163Z,24.43
2019-02-16T21:04:50.904Z,24.53
2019-02-16T21:07:45.245Z,22.33
2019-02-16T21:10:28.765Z,22.90
2019-02-16T21:13:22.121Z,23.97
2019-02-16T21:16:05.293Z,23.47
2019-02-16T21:19:10.303Z,24.97
2019-02-16T21:22:19.882Z,20.70
2019-02-16T21:25:13.361Z,20.40
2019-02-16T21:27:58.298Z,18.57
2019-02-16T21:30:52.463Z,17.77
2019-02-16T21:33:36.395Z,20.07
2019-02-16T21:36:37.211Z,17.83
2019-02-16T21:39:30.517Z,16.63
2019-02-16T21:42:18.446Z,18.27
2019-02-16T21:45:12.477Z,23.07
2019-02-16T21:48:25.975Z,18.40
2019-02-16T21:51:14.189Z,18.70
2019-02-16T21:54:11.533Z,17.10
2019-02-16T21:56:59.251Z,16.97
2019-02-16T21:59:57.412Z,17.57
2019-02-16T22:03:01.787Z,14.57
2019-02-16T22:06:08.143Z,14.10
2019-02-16T22:09:08.955Z,12.10
2019-02-16T22:11:58.237Z,12.90
2019-02-16T22:14:32.002Z,11.73
2019-02-16T22:17:06.465Z,10.57
2019-02-16T22:19:40.369Z,11.30
2019-02-16T22:22:14.789Z,12.00
2019-02-16T22:24:48.673Z,9.90
2019-02-16T22:27:24.649Z,11.23
2019-02-16T22:29:58.863Z,13.20
2019-02-16T22:32:33.655Z,13.20
2019-02-16T22:35:09.045Z,15.00
2019-02-16T22:37:42.787Z,12.40
2019-02-16T22:40:18.261Z,11.53
2019-02-16T22:42:52.231Z,13.13
2019-02-16T22:45:26.204Z,12.70
2019-02-16T22:48:03.008Z,11.70
2019-02-16T22:50:37.065Z,13.73
2019-02-16T22:53:11.044Z,14.77
2019-02-16T22:55:45.619Z,14.63
2019-02-16T22:58:28.515Z,15.70
2019-02-16T23:00:56.088Z,16.53
2019-02-16T23:03:31.914Z,18.27
2019-02-16T23:06:05.809Z,20.80
2019-02-16T23:08:41.595Z,20.67
2019-02-16T23:11:16.585Z,21.00
2019-02-16T23:13:49.953Z,21.80
2019-02-16T23:16:24.179Z,23.50
2019-02-16T23:18:58.446Z,24.97
2019-02-16T23:21:32.714Z,22.53
2019-02-16T23:24:06.939Z,23.03
2019-02-16T23:26:43.006Z,18.80
2019-02-16T23:29:18.433Z,18.10
2019-02-16T23:31:54.251Z,19.83
2019-02-16T23:34:28.325Z,20.43
2019-02-16T23:37:02.993Z,20.93
2019-02-16T23:39:37.310Z,21.33
2019-02-16T23:42:11.325Z,19.20
2019-02-16T23:44:44.959Z,19.23
2019-02-16T23:47:18.853Z,18.07
2019-02-16T23:49:52.506Z,17.77
2019-02-16T23:52:27.076Z,18.27
2019-02-16T23:55:01.350Z,17.93
2019-02-16T23:57:35.454Z,15.47
